createdAt,value
2022-09-23T00:01:02.775Z,16.23
2022-09-23T00:03:33.053Z,17.15
2022-09-23T00:06:05.477Z,19.13
2022-09-23T00:08:35.238Z,14.43
2022-09-23T00:11:07.040Z,11.65
2022-09-23T00:13:39.690Z,13.35
2022-09-23T00:16:15.628Z,13.50
2022-09-23T00:18:45.172Z,13.20
2022-09-23T00:21:15.859Z,15.98
2022-09-23T00:23:44.693Z,17.70
2022-09-23T00:26:19.179Z,20.10
2022-09-23T00:28:48.836Z,19.08
2022-09-23T00:31:21.699Z,16.77
2022-09-23T00:33:54.805Z,14.35
2022-09-23T00:36:27.959Z,15.13
2022-09-23T00:38:57.314Z,16.63
2022-09-23T00:41:29.334Z,14.73
2022-09-23T00:44:00.025Z,13.73
2022-09-23T00:46:36.360Z,17.17
2022-09-23T00:49:12.234Z,13.20
2022-09-23T00:51:52.572Z,13.88
2022-09-23T00:54:27.909Z,13.13
2022-09-23T00:59:26.300Z,16.77
2022-09-23T01:02:00.697Z,14.45
2022-09-23T01:04:31.166Z,12.70
2022-09-23T01:07:00.080Z,17.10
2022-09-23T01:09:29.673Z,16.80
2022-09-23T01:12:06.047Z,16.90
2022-09-23T01:14:45.963Z,17.80
2022-09-23T01:17:28.574Z,13.13
2022-09-23T01:20:20.612Z,13.85
2022-09-23T01:23:05.071Z,16.33
2022-09-23T01:25:49.807Z,12.50
2022-09-23T01:28:33.427Z,14.60
2022-09-23T01:31:08.273Z,15.50
2022-09-23T01:33:46.365Z,13.15
2022-09-23T01:36:23.409Z,13.20
2022-09-23T01:38:59.708Z,19.67
2022-09-23T01:41:47.284Z,14.48
2022-09-23T01:44:23.015Z,16.92
2022-09-23T01:47:00.788Z,11.32
2022-09-23T01:49:39.535Z,14.65
2022-09-23T01:52:16.007Z,13.90
2022-09-23T01:54:52.348Z,13.68
2022-09-23T01:57:31.882Z,13.27
2022-09-23T02:00:07.957Z,13.57
2022-09-23T02:02:50.057Z,14.02
2022-09-23T02:05:25.604Z,13.30
2022-09-23T02:08:00.033Z,14.68
2022-09-23T02:10:36.360Z,17.65
2022-09-23T02:13:10.483Z,15.85
2022-09-23T02:15:46.116Z,24.75
2022-09-23T02:18:20.068Z,18.15
2022-09-23T02:20:54.835Z,14.43
2022-09-23T02:23:29.238Z,20.40
2022-09-23T02:26:07.526Z,15.20
2022-09-23T02:28:48.029Z,16.77
2022-09-23T02:31:28.035Z,14.18
2022-09-23T02:34:04.324Z,15.15
2022-09-23T02:36:41.992Z,15.70
2022-09-23T02:39:15.056Z,12.10
2022-09-23T02:41:53.789Z,14.88
2022-09-23T02:44:24.147Z,14.57
2022-09-23T02:46:57.108Z,15.20
2022-09-23T02:49:29.449Z,13.75
2022-09-23T02:52:04.859Z,12.87
2022-09-23T02:54:35.436Z,20.08
2022-09-23T02:57:08.719Z,15.00
2022-09-23T02:59:40.942Z,18.63
2022-09-23T03:02:26.653Z,13.98
2022-09-23T03:05:06.824Z,13.48
2022-09-23T03:07:49.011Z,19.55
2022-09-23T03:10:27.299Z,13.23
2022-09-23T03:13:12.354Z,17.90
2022-09-23T03:15:53.399Z,14.95
2022-09-23T03:18:31.730Z,13.73
2022-09-23T03:21:08.212Z,13.85
2022-09-23T03:23:41.533Z,17.10
2022-09-23T03:26:16.423Z,16.13
2022-09-23T03:28:47.825Z,15.10
2022-09-23T03:31:18.403Z,15.25
2022-09-23T03:33:51.514Z,12.15
2022-09-23T03:36:45.794Z,13.85
2022-09-23T03:39:24.209Z,16.42
2022-09-23T03:41:57.064Z,16.60
2022-09-23T03:44:29.462Z,16.92
2022-09-23T03:47:00.552Z,15.43
2022-09-23T03:49:35.558Z,15.00
2022-09-23T03:52:07.083Z,16.45
2022-09-23T03:54:36.452Z,16.98
2022-09-23T03:57:07.318Z,12.85
2022-09-23T03:59:37.018Z,14.63
2022-09-23T04:02:07.912Z,13.20
2022-09-23T04:04:39.148Z,14.68
2022-09-23T04:07:12.326Z,15.50
2022-09-23T04:09:41.796Z,17.58
2022-09-23T04:12:14.799Z,16.98
2022-09-23T04:14:44.827Z,14.43
2022-09-23T04:17:15.268Z,14.35
2022-09-23T04:19:46.196Z,15.77
2022-09-23T04:22:17.342Z,15.60
2022-09-23T04:24:47.478Z,15.80
2022-09-23T04:27:16.861Z,12.48
2022-09-23T04:29:46.956Z,15.13
2022-09-23T04:32:17.064Z,16.25
2022-09-23T04:34:46.791Z,14.38
2022-09-23T04:37:17.569Z,11.95
2022-09-23T04:39:46.847Z,13.32
2022-09-23T04:42:17.783Z,18.45
2022-09-23T04:44:47.586Z,11.40
2022-09-23T04:47:19.283Z,13.63
2022-09-23T04:49:48.802Z,12.65
2022-09-23T04:52:20.284Z,18.42
2022-09-23T04:54:50.160Z,12.95
2022-09-23T04:57:19.692Z,17.58
2022-09-23T04:59:49.434Z,12.35
2022-09-23T05:02:21.806Z,12.32
2022-09-23T05:04:50.740Z,14.20
2022-09-23T05:07:21.574Z,15.00
2022-09-23T05:09:50.599Z,15.50
2022-09-23T05:12:22.245Z,11.75
2022-09-23T05:14:52.192Z,13.30
2022-09-23T05:17:22.681Z,13.88
2022-09-23T05:19:52.240Z,15.55
2022-09-23T05:22:23.035Z,11.75
2022-09-23T05:24:52.079Z,14.98
2022-09-23T05:27:23.967Z,13.77
2022-09-23T05:29:53.442Z,12.82
2022-09-23T05:32:22.934Z,15.88
2022-09-23T05:34:55.806Z,12.75
2022-09-23T05:37:26.715Z,10.85
2022-09-23T05:39:59.120Z,14.82
2022-09-23T05:42:28.859Z,11.25
2022-09-23T05:44:58.307Z,15.25
2022-09-23T05:47:27.502Z,14.38
2022-09-23T05:50:00.002Z,14.20
2022-09-23T05:52:31.583Z,13.13
2022-09-23T05:55:02.100Z,15.30
2022-09-23T05:57:30.823Z,14.60
2022-09-23T06:00:00.251Z,11.98
2022-09-23T06:02:29.579Z,13.68
2022-09-23T06:04:58.921Z,11.63
2022-09-23T06:07:27.883Z,11.07
2022-09-23T06:09:58.831Z,14.77
2022-09-23T06:12:28.307Z,12.10
2022-09-23T06:14:57.821Z,15.40
2022-09-23T06:17:28.930Z,12.43
2022-09-23T06:20:00.788Z,11.93
2022-09-23T06:22:30.118Z,16.48
2022-09-23T06:25:02.162Z,16.05
2022-09-23T06:27:34.835Z,16.02
2022-09-23T06:30:04.361Z,14.48
2022-09-23T06:32:34.769Z,15.07
2022-09-23T06:35:15.801Z,10.98
2022-09-23T06:37:52.227Z,20.02
2022-09-23T06:40:24.340Z,15.80
2022-09-23T06:42:58.767Z,12.82
2022-09-23T06:45:28.182Z,16.55
2022-09-23T06:47:58.453Z,14.55
2022-09-23T06:50:29.169Z,13.85
2022-09-23T06:52:58.694Z,12.77
2022-09-23T06:55:29.303Z,11.98
2022-09-23T06:57:59.908Z,11.05
2022-09-23T07:00:29.627Z,12.60
2022-09-23T07:02:59.715Z,14.57
2022-09-23T07:05:29.522Z,16.42
2022-09-23T07:07:59.803Z,15.00
2022-09-23T07:10:32.642Z,13.82
2022-09-23T07:13:03.425Z,16.23
2022-09-23T07:15:34.021Z,13.07
2022-09-23T07:18:03.757Z,15.88
2022-09-23T07:20:33.478Z,14.48
2022-09-23T07:23:02.761Z,11.20
2022-09-23T07:25:34.280Z,13.57
2022-09-23T07:28:03.374Z,14.68
2022-09-23T07:30:33.421Z,15.95
2022-09-23T07:33:20.334Z,16.05
2022-09-23T07:35:54.282Z,15.52
2022-09-23T07:38:26.125Z,11.40
2022-09-23T07:41:02.108Z,11.50
2022-09-23T07:43:32.242Z,18.20
2022-09-23T07:46:03.747Z,11.60
2022-09-23T07:48:34.631Z,12.30
2022-09-23T07:51:08.861Z,15.15
2022-09-23T07:53:38.663Z,12.57
2022-09-23T07:56:10.144Z,13.43
2022-09-23T07:58:41.625Z,14.77
2022-09-23T08:01:12.597Z,20.33
2022-09-23T08:03:44.215Z,13.40
2022-09-23T08:06:17.470Z,13.20
2022-09-23T08:08:50.009Z,13.90
2022-09-23T08:11:24.099Z,10.70
2022-09-23T08:13:53.180Z,11.68
2022-09-23T08:16:22.231Z,12.57
2022-09-23T08:18:51.341Z,12.48
2022-09-23T08:21:22.021Z,13.52
2022-09-23T08:23:54.739Z,15.13
2022-09-23T08:26:25.351Z,18.02
2022-09-23T08:28:54.761Z,17.73
2022-09-23T08:31:26.436Z,13.60
2022-09-23T08:33:57.372Z,18.58
2022-09-23T08:36:29.423Z,11.80
2022-09-23T08:38:59.196Z,15.90
2022-09-23T08:41:38.650Z,15.10
2022-09-23T08:44:15.089Z,13.48
2022-09-23T08:46:49.360Z,16.52
2022-09-23T08:49:28.862Z,13.65
2022-09-23T08:52:08.273Z,12.48
2022-09-23T08:54:40.278Z,18.52
2022-09-23T08:57:21.290Z,13.43
2022-09-23T08:59:50.669Z,15.88
2022-09-23T09:02:22.069Z,15.05
2022-09-23T09:04:56.778Z,16.27
2022-09-23T09:07:36.759Z,14.20
2022-09-23T09:10:12.805Z,19.00
2022-09-23T09:12:45.996Z,13.27
2022-09-23T09:17:59.488Z,12.80
2022-09-23T09:20:40.209Z,16.33
2022-09-23T09:23:22.590Z,14.48
2022-09-23T09:25:55.759Z,13.45
2022-09-23T09:28:32.290Z,14.23
2022-09-23T09:31:03.882Z,16.25
2022-09-23T09:33:41.637Z,13.83
2022-09-23T09:36:20.614Z,16.65
2022-09-23T09:38:51.112Z,11.07
2022-09-23T09:41:21.701Z,16.30
2022-09-23T09:43:57.795Z,23.23
2022-09-23T09:46:46.064Z,12.18
2022-09-23T09:49:24.299Z,11.73
2022-09-23T09:52:13.604Z,14.30
2022-09-23T09:54:43.513Z,15.55
2022-09-23T09:57:33.681Z,11.95
2022-09-23T10:00:35.858Z,15.18
2022-09-23T10:03:26.775Z,15.57
2022-09-23T10:05:57.695Z,14.02
2022-09-23T10:08:31.229Z,16.13
2022-09-23T10:11:05.456Z,14.85
2022-09-23T10:13:35.168Z,13.35
2022-09-23T10:16:07.912Z,15.77
2022-09-23T10:18:39.413Z,12.40
2022-09-23T10:21:12.206Z,10.63
2022-09-23T10:23:43.844Z,13.35
2022-09-23T10:26:17.528Z,11.63
2022-09-23T10:28:50.335Z,14.23
2022-09-23T10:31:25.855Z,21.20
2022-09-23T10:33:57.391Z,11.52
2022-09-23T10:36:29.657Z,12.57
2022-09-23T10:39:17.517Z,16.23
2022-09-23T10:42:14.389Z,16.92
2022-09-23T10:45:16.799Z,17.65
2022-09-23T10:47:58.173Z,12.27
2022-09-23T10:50:39.085Z,11.95
2022-09-23T10:53:19.686Z,16.50
2022-09-23T10:55:59.577Z,10.35
2022-09-23T10:59:02.092Z,17.70
2022-09-23T11:01:40.463Z,14.15
2022-09-23T11:04:41.009Z,14.15
2022-09-23T11:07:19.278Z,11.48
2022-09-23T11:10:23.180Z,11.00
2022-09-23T11:13:09.792Z,18.25
2022-09-23T11:15:51.790Z,12.68
2022-09-23T11:18:45.362Z,13.02
2022-09-23T11:21:38.205Z,12.35
2022-09-23T11:24:28.126Z,10.35
2022-09-23T11:27:08.979Z,10.73
2022-09-23T11:29:59.431Z,11.02
2022-09-23T11:32:45.665Z,10.80
2022-09-23T11:35:20.586Z,12.25
2022-09-23T11:37:56.947Z,13.82
2022-09-23T11:40:32.070Z,16.58
2022-09-23T11:43:08.453Z,12.27
2022-09-23T11:45:46.316Z,11.20
2022-09-23T11:48:18.171Z,10.07
2022-09-23T11:50:55.499Z,12.25
2022-09-23T11:53:36.145Z,13.15
2022-09-23T11:56:16.547Z,8.57
2022-09-23T11:59:03.421Z,14.32
2022-09-23T12:01:37.944Z,10.88
2022-09-23T12:04:19.986Z,10.70
2022-09-23T12:06:54.116Z,10.23
2022-09-23T12:09:53.903Z,12.32
2022-09-23T12:12:27.374Z,14.23
2022-09-23T12:15:02.946Z,12.02
2022-09-23T12:17:51.522Z,15.43
2022-09-23T12:20:51.417Z,11.68
2022-09-23T12:23:35.845Z,14.38
2022-09-23T12:26:09.395Z,11.18
2022-09-23T12:28:41.966Z,8.77
2022-09-23T12:33:42.762Z,10.80
2022-09-23T12:36:13.303Z,9.05
2022-09-23T12:38:49.637Z,14.68
2022-09-23T12:41:28.784Z,12.88
2022-09-23T12:44:02.744Z,11.50
2022-09-23T12:46:31.806Z,10.82
2022-09-23T12:49:03.911Z,11.52
2022-09-23T12:51:34.861Z,14.32
2022-09-23T12:54:26.201Z,10.15
2022-09-23T12:57:10.584Z,10.32
2022-09-23T12:59:57.563Z,11.07
2022-09-23T13:02:34.702Z,10.00
2022-09-23T13:05:39.525Z,12.60
2022-09-23T13:08:13.394Z,12.50
2022-09-23T13:10:50.006Z,16.92
2022-09-23T13:13:27.651Z,10.27
2022-09-23T13:15:56.704Z,10.98
2022-09-23T13:18:41.218Z,11.98
2022-09-23T13:21:19.364Z,14.98
2022-09-23T13:24:19.487Z,14.05
2022-09-23T13:26:50.977Z,8.45
2022-09-23T13:29:28.275Z,8.43
2022-09-23T13:31:58.449Z,8.48
2022-09-23T13:34:33.377Z,8.65
2022-09-23T13:37:21.580Z,9.07
2022-09-23T13:39:51.098Z,6.45
2022-09-23T13:42:27.733Z,14.50
2022-09-23T13:45:00.432Z,9.93
2022-09-23T13:47:32.097Z,9.23
2022-09-23T13:50:02.091Z,10.20
2022-09-23T13:52:34.600Z,11.07
2022-09-23T13:55:03.298Z,11.25
2022-09-23T13:57:34.950Z,14.82
2022-09-23T14:00:18.714Z,15.85
2022-09-23T14:02:47.908Z,9.68
2022-09-23T14:05:23.741Z,11.65
2022-09-23T14:07:53.732Z,13.77
2022-09-23T14:10:24.683Z,12.45
2022-09-23T14:12:55.248Z,16.92
2022-09-23T14:15:25.490Z,12.90
2022-09-23T14:18:07.370Z,12.70
2022-09-23T14:20:46.943Z,8.95
2022-09-23T14:23:18.850Z,15.83
2022-09-23T14:25:48.616Z,14.70
2022-09-23T14:28:19.568Z,14.75
2022-09-23T14:30:53.959Z,17.23
2022-09-23T14:33:28.751Z,14.40
2022-09-23T14:36:04.040Z,15.80
2022-09-23T14:38:53.907Z,10.50
2022-09-23T14:41:25.430Z,12.00
2022-09-23T14:43:58.406Z,13.75
2022-09-23T14:49:08.458Z,12.38
2022-09-23T14:51:47.723Z,8.90
2022-09-23T14:54:37.292Z,13.00
2022-09-23T14:57:25.380Z,9.23
2022-09-23T14:59:56.065Z,12.27
2022-09-23T15:02:35.689Z,9.55
2022-09-23T15:05:16.939Z,14.18
2022-09-23T15:07:49.884Z,14.60
2022-09-23T15:10:23.604Z,12.57
2022-09-23T15:12:54.394Z,14.20
2022-09-23T15:15:28.101Z,9.73
2022-09-23T15:18:05.622Z,10.88
2022-09-23T15:20:36.496Z,10.38
2022-09-23T15:23:32.496Z,11.90
2022-09-23T15:26:06.948Z,10.55
2022-09-23T15:28:36.437Z,9.80
2022-09-23T15:31:11.959Z,15.25
2022-09-23T15:33:45.185Z,15.43
2022-09-23T15:36:18.561Z,13.32
2022-09-23T15:38:48.662Z,17.20
2022-09-23T15:41:17.898Z,14.55
2022-09-23T15:43:47.195Z,12.80
2022-09-23T15:46:22.464Z,13.52
2022-09-23T15:48:58.859Z,16.45
2022-09-23T15:51:28.593Z,15.27
2022-09-23T15:53:57.869Z,15.98
2022-09-23T15:56:27.113Z,17.38
2022-09-23T15:58:56.119Z,20.13
2022-09-23T16:01:29.586Z,19.65
2022-09-23T16:04:04.089Z,15.40
2022-09-23T16:06:36.334Z,18.58
2022-09-23T16:09:07.135Z,20.65
2022-09-23T16:11:38.331Z,23.38
2022-09-23T16:14:11.440Z,17.52
2022-09-23T16:19:13.896Z,23.38
2022-09-23T16:21:44.766Z,37.45
2022-09-23T16:24:18.089Z,24.05
2022-09-23T16:26:49.201Z,18.55
2022-09-23T16:29:19.419Z,19.08
2022-09-23T16:31:48.918Z,23.73
2022-09-23T16:34:21.231Z,18.80
2022-09-23T16:36:51.302Z,18.88
2022-09-23T16:39:23.030Z,22.88
2022-09-23T16:41:52.817Z,21.45
2022-09-23T16:44:22.917Z,22.77
2022-09-23T16:46:54.222Z,29.77
2022-09-23T16:49:27.513Z,22.95
2022-09-23T16:51:57.617Z,22.35
2022-09-23T16:54:27.649Z,23.48
2022-09-23T16:57:01.122Z,27.85
2022-09-23T16:59:51.714Z,25.80
2022-09-23T17:02:38.614Z,24.25
2022-09-23T17:05:11.087Z,26.02
2022-09-23T17:07:40.137Z,22.53
2022-09-23T17:10:11.926Z,22.50
2022-09-23T17:12:41.641Z,24.35
2022-09-23T17:15:12.670Z,22.58
2022-09-23T17:17:42.464Z,24.77
2022-09-23T17:20:14.470Z,22.45
2022-09-23T17:22:44.570Z,22.37
2022-09-23T17:25:17.004Z,20.80
2022-09-23T17:27:49.027Z,18.35
2022-09-23T17:30:18.083Z,102.47
2022-09-23T17:32:47.311Z,88.55
2022-09-23T17:35:17.597Z,40.33
2022-09-23T17:37:47.633Z,21.30
2022-09-23T17:40:16.803Z,19.13
2022-09-23T17:42:45.639Z,18.48
2022-09-23T17:45:14.771Z,20.73
2022-09-23T17:47:43.617Z,27.27
2022-09-23T17:50:19.878Z,29.98
2022-09-23T17:52:48.667Z,31.52
2022-09-23T17:55:18.144Z,27.65
2022-09-23T17:57:51.598Z,27.60
2022-09-23T18:00:20.691Z,28.60
2022-09-23T18:02:52.494Z,28.50
2022-09-23T18:05:23.610Z,34.72
2022-09-23T18:07:52.452Z,28.17
2022-09-23T18:10:26.812Z,29.58
2022-09-23T18:12:55.962Z,31.92
2022-09-23T18:15:24.784Z,30.35
2022-09-23T18:17:53.665Z,30.70
2022-09-23T18:20:24.229Z,31.00
2022-09-23T18:22:53.040Z,35.70
2022-09-23T18:25:38.054Z,39.13
2022-09-23T18:28:07.495Z,29.38
2022-09-23T18:30:36.319Z,33.80
2022-09-23T18:33:08.004Z,37.85
2022-09-23T18:35:39.797Z,32.47
2022-09-23T18:38:10.410Z,31.95
2022-09-23T18:40:41.508Z,32.28
2022-09-23T18:43:11.752Z,32.70
2022-09-23T18:45:43.249Z,30.15
2022-09-23T18:48:31.047Z,28.08
2022-09-23T18:51:04.030Z,31.15
2022-09-23T18:53:36.655Z,32.42
2022-09-23T18:56:08.606Z,27.05
2022-09-23T18:58:39.183Z,27.17
2022-09-23T19:01:10.973Z,29.70
2022-09-23T19:03:40.339Z,92.05
2022-09-23T19:06:13.441Z,63.97
2022-09-23T19:11:15.752Z,27.00
2022-09-23T19:13:45.341Z,31.48
2022-09-23T19:16:16.830Z,24.00
2022-09-23T19:18:46.870Z,19.48
2022-09-23T19:21:20.343Z,20.02
2022-09-23T19:23:51.293Z,19.15
2022-09-23T19:26:27.182Z,24.02
2022-09-23T19:28:57.065Z,22.85
2022-09-23T19:31:27.230Z,19.73
2022-09-23T19:33:57.486Z,19.05
2022-09-23T19:36:29.292Z,13.75
2022-09-23T19:38:59.677Z,11.50
2022-09-23T19:41:33.393Z,13.30
2022-09-23T19:44:07.143Z,11.73
2022-09-23T19:46:38.899Z,16.05
2022-09-23T19:49:08.686Z,15.13
2022-09-23T19:51:41.542Z,12.55
2022-09-23T19:54:10.422Z,16.77
2022-09-23T19:56:39.688Z,13.95
2022-09-23T19:59:09.466Z,13.75
2022-09-23T20:01:38.525Z,13.82
2022-09-23T20:04:09.951Z,13.77
2022-09-23T20:06:39.514Z,15.98
2022-09-23T20:09:09.990Z,17.35
2022-09-23T20:11:38.866Z,15.20
2022-09-23T20:14:07.924Z,17.20
2022-09-23T20:16:37.869Z,18.05
2022-09-23T20:19:07.108Z,15.82
2022-09-23T20:21:36.465Z,17.25
2022-09-23T20:24:06.981Z,21.33
2022-09-23T20:26:54.442Z,45.08
2022-09-23T20:29:23.151Z,20.15
2022-09-23T20:31:51.843Z,17.77
2022-09-23T20:34:21.248Z,15.38
2022-09-23T20:36:49.940Z,15.10
2022-09-23T20:39:19.574Z,17.05
2022-09-23T20:41:50.504Z,14.00
2022-09-23T20:46:51.417Z,14.55
2022-09-23T20:49:20.864Z,16.48
2022-09-23T20:51:49.907Z,22.50
2022-09-23T20:54:21.188Z,18.13
2022-09-23T20:56:51.356Z,21.90
2022-09-23T20:59:20.318Z,21.45
2022-09-23T21:01:53.550Z,24.90
2022-09-23T21:04:24.965Z,26.20
2022-09-23T21:06:53.794Z,25.65
2022-09-23T21:09:22.559Z,27.67
2022-09-23T21:11:52.882Z,29.00
2022-09-23T21:14:24.318Z,24.33
2022-09-23T21:16:54.706Z,23.73
2022-09-23T21:19:24.426Z,27.27
2022-09-23T21:21:56.949Z,23.73
2022-09-23T21:27:22.880Z,19.45
2022-09-23T21:29:51.605Z,20.33
2022-09-23T21:32:21.397Z,23.60
2022-09-23T21:34:50.383Z,20.73
2022-09-23T21:37:19.058Z,20.42
2022-09-23T21:40:07.816Z,19.00
2022-09-23T21:42:38.115Z,17.70
2022-09-23T21:45:09.575Z,19.33
2022-09-23T21:47:38.551Z,19.38
2022-09-23T21:50:08.819Z,19.73
2022-09-23T21:52:38.112Z,19.08
2022-09-23T21:55:07.753Z,24.95
2022-09-23T21:57:38.517Z,19.20
2022-09-23T22:02:41.437Z,21.02
2022-09-23T22:05:11.757Z,21.50
2022-09-23T22:07:41.868Z,23.65
2022-09-23T22:10:11.812Z,21.67
2022-09-23T22:12:43.106Z,21.40
2022-09-23T22:15:13.091Z,23.50
2022-09-23T22:17:42.897Z,25.73
2022-09-23T22:20:15.826Z,29.20
2022-09-23T22:22:46.111Z,23.58
2022-09-23T22:25:15.892Z,29.38
2022-09-23T22:28:01.448Z,25.48
2022-09-23T22:30:48.750Z,32.55
2022-09-23T22:33:19.491Z,25.60
2022-09-23T22:35:49.211Z,30.65
2022-09-23T22:38:19.276Z,25.48
2022-09-23T22:40:50.164Z,27.80
2022-09-23T22:43:20.602Z,33.67
2022-09-23T22:45:51.677Z,30.13
2022-09-23T22:48:21.129Z,30.95
2022-09-23T22:50:52.849Z,33.35
2022-09-23T22:53:24.486Z,27.90
2022-09-23T22:55:59.224Z,27.23
2022-09-23T22:58:32.483Z,28.30
2022-09-23T23:01:02.570Z,27.98
2022-09-23T23:03:33.137Z,30.55
2022-09-23T23:06:03.335Z,27.85
2022-09-23T23:08:32.864Z,27.13
2022-09-23T23:11:05.564Z,31.15
2022-09-23T23:16:12.511Z,25.60
2022-09-23T23:18:43.407Z,26.05
2022-09-23T23:21:14.440Z,23.80
2022-09-23T23:23:45.661Z,24.15
2022-09-23T23:26:17.419Z,23.88
2022-09-23T23:28:48.962Z,22.15
2022-09-23T23:31:19.566Z,20.63
2022-09-23T23:33:48.940Z,24.80
2022-09-23T23:36:20.348Z,21.67
2022-09-23T23:38:51.757Z,20.05
2022-09-23T23:41:22.799Z,22.27
2022-09-23T23:43:57.963Z,19.35
2022-09-23T23:46:28.551Z,21.67
2022-09-23T23:48:58.282Z,26.58
2022-09-23T23:51:28.336Z,22.33
2022-09-23T23:53:58.749Z,18.20
2022-09-23T23:56:28.220Z,20.33
2022-09-23T23:59:00.203Z,18.42
